Time;durP1;ratioP1;P1;durP2;ratioP2;P2;SDS_P1;SDS_P2;PMS_P1;PMS_P2;Temp;Humidity;BMP_temperature;BMP_pressure;BME280_temperature;BME280_humidity;BME280_pressure;Samples;Min_cycle;Max_cycle;Signal;HPM_P1;HPM_P2
2021/12/09 00:00:59;;;;;;;19.23;6.32;;;;;;;8.31;58.28;100161.25;5112155;28;20024;-63
2021/12/09 00:03:28;;;;;;;15.07;5.63;;;;;;;8.24;58.58;100167.16;5111677;28;20024;-62
2021/12/09 00:05:55;;;;;;;14.10;5.60;;;;;;;8.56;57.53;100156.41;5112052;28;20024;-62
2021/12/09 00:08:21;;;;;;;16.90;6.10;;;;;;;8.17;58.63;100162.06;5112467;28;20032;-64
2021/12/09 00:10:47;;;;;;;19.27;5.65;;;;;;;8.69;56.78;100155.56;5111898;28;20028;-61
2021/12/09 00:13:12;;;;;;;20.55;5.65;;;;;;;8.27;58.31;100165.72;5112503;28;20047;-64
2021/12/09 00:15:38;;;;;;;15.77;5.68;;;;;;;8.37;57.97;100176.44;5111921;28;20052;-66
2021/12/09 00:18:03;;;;;;;21.05;6.47;;;;;;;8.03;59.21;100171.38;5110788;28;20087;-62
2021/12/09 00:20:29;;;;;;;20.13;6.40;;;;;;;7.37;60.65;100177.72;5112383;28;20036;-61
2021/12/09 00:22:55;;;;;;;16.85;6.03;;;;;;;8.03;59.86;100183.09;5111742;28;20030;-63
2021/12/09 00:25:20;;;;;;;15.20;5.80;;;;;;;8.08;59.25;100185.75;5111181;28;20040;-62
2021/12/09 00:27:45;;;;;;;26.42;6.53;;;;;;;7.88;59.66;100183.41;5094435;28;20128;-62
2021/12/09 00:30:12;;;;;;;17.02;6.40;;;;;;;7.86;59.81;100185.59;5110724;28;20039;-61
2021/12/09 00:32:39;;;;;;;20.05;6.35;;;;;;;7.66;60.66;100187.59;5077339;28;20059;-64
2021/12/09 00:35:06;;;;;;;20.80;6.90;;;;;;;6.95;62.29;100182.19;5111532;28;20032;-64
2021/12/09 00:37:52;;;;;;;14.77;5.95;;;;;;;7.39;62.27;100180.94;5111864;28;20059;-60
2021/12/09 00:40:18;;;;;;;18.73;6.82;;;;;;;7.84;60.45;100185.09;5111081;28;20032;-64
2021/12/09 00:42:43;;;;;;;19.80;5.88;;;;;;;7.22;61.76;100172.50;5111805;28;20035;-62
2021/12/09 00:45:09;;;;;;;20.30;6.75;;;;;;;7.85;60.86;100173.09;5111567;28;20016;-62
2021/12/09 00:47:34;;;;;;;18.67;6.70;;;;;;;7.89;60.04;100176.81;5111624;28;20028;-63
2021/12/09 00:49:59;;;;;;;22.02;6.35;;;;;;;8.15;58.79;100177.16;5110193;28;20032;-63
2021/12/09 00:52:26;;;;;;;21.98;7.10;;;;;;;8.09;59.56;100170.97;5111626;28;20053;-63
2021/12/09 00:54:52;;;;;;;22.90;6.50;;;;;;;8.27;58.57;100165.72;5111806;28;20480;-62
2021/12/09 00:57:18;;;;;;;18.73;6.82;;;;;;;8.28;58.78;100167.34;5093582;28;20032;-61
2021/12/09 00:59:44;;;;;;;21.05;7.53;;;;;;;8.14;59.29;100167.31;5093749;28;20031;-62
2021/12/09 01:02:10;;;;;;;21.83;8.23;;;;;;;7.92;59.73;100173.47;5110310;28;20028;-63
2021/12/09 01:04:37;;;;;;;19.67;7.38;;;;;;;7.72;60.44;100167.28;5110145;28;20023;-61
2021/12/09 01:07:04;;;;;;;20.95;7.85;;;;;;;7.77;60.01;100174.56;5111141;28;20024;-63
2021/12/09 01:09:30;;;;;;;17.10;6.88;;;;;;;7.40;61.63;100174.38;5111458;28;20068;-65
2021/12/09 01:11:55;;;;;;;17.15;7.50;;;;;;;7.54;60.88;100170.88;5111585;28;20024;-62
2021/12/09 01:14:20;;;;;;;19.33;6.72;;;;;;;7.36;61.32;100170.63;5109802;28;20072;-61
2021/12/09 01:16:46;;;;;;;20.88;7.93;;;;;;;7.25;62.03;100169.16;5110535;28;20024;-62
2021/12/09 01:19:11;;;;;;;18.42;7.75;;;;;;;7.77;60.27;100167.19;5111029;28;20031;-61
2021/12/09 01:21:37;;;;;;;20.65;7.93;;;;;;;7.61;60.65;100165.84;5111501;28;20020;-61
2021/12/09 01:24:02;;;;;;;17.67;7.57;;;;;;;8.02;59.45;100170.56;5110894;28;20034;-62
2021/12/09 01:26:29;;;;;;;23.73;8.50;;;;;;;7.88;60.20;100161.56;5111315;28;20031;-62
2021/12/09 01:29:00;;;;;;;18.50;7.50;;;;;;;7.80;59.51;100174.78;5111345;28;20113;-63
2021/12/09 01:31:31;;;;;;;18.92;7.82;;;;;;;7.60;60.70;100164.22;5094276;28;20032;-62
2021/12/09 01:34:01;;;;;;;17.23;6.90;;;;;;;7.85;59.72;100175.81;5110122;28;20020;-61
2021/12/09 01:36:27;;;;;;;19.90;7.55;;;;;;;7.63;59.85;100178.09;5111274;28;20499;-63
2021/12/09 01:38:53;;;;;;;18.50;7.40;;;;;;;7.63;60.10;100180.84;5111354;28;20055;-63
2021/12/09 01:41:19;;;;;;;20.75;6.93;;;;;;;7.35;61.79;100177.19;5110806;28;20031;-62
2021/12/09 01:43:45;;;;;;;17.17;6.97;;;;;;;7.82;59.44;100178.00;5110127;28;20032;-61
2021/12/09 01:46:13;;;;;;;20.70;7.40;;;;;;;7.58;60.61;100174.63;5110660;28;20079;-62
2021/12/09 01:48:42;;;;;;;14.65;7.05;;;;;;;7.48;60.34;100178.34;5111420;28;20054;-62
2021/12/09 01:51:07;;;;;;;13.18;6.78;;;;;;;7.54;60.71;100179.06;5109588;28;20039;-60
2021/12/09 01:53:34;;;;;;;16.40;7.07;;;;;;;8.59;57.56;100173.00;5110150;28;20057;-62
2021/12/09 01:56:02;;;;;;;17.20;7.38;;;;;;;7.94;58.91;100179.47;5111072;28;20069;-60
2021/12/09 01:58:27;;;;;;;17.45;7.20;;;;;;;8.15;58.39;100183.41;5109804;28;20031;-63
2021/12/09 02:00:53;;;;;;;13.32;6.68;;;;;;;7.95;58.72;100181.06;5110403;28;20091;-62
2021/12/09 02:03:19;;;;;;;18.60;7.97;;;;;;;7.97;59.06;100182.41;5113595;28;20501;-62
2021/12/09 02:05:44;;;;;;;16.88;6.97;;;;;;;7.42;60.49;100183.06;5114016;28;20054;-63
2021/12/09 02:08:13;;;;;;;19.10;6.97;;;;;;;7.52;60.07;100184.00;5113368;28;20027;-63
2021/12/09 02:10:39;;;;;;;17.20;6.93;;;;;;;7.65;59.49;100176.97;5114745;28;20023;-62
2021/12/09 02:13:05;;;;;;;14.63;6.45;;;;;;;8.56;56.89;100180.97;5113884;28;20035;-65
2021/12/09 02:15:31;;;;;;;19.52;6.88;;;;;;;8.11;57.83;100196.06;5113150;28;20044;-64
2021/12/09 02:17:57;;;;;;;15.38;6.63;;;;;;;7.44;59.93;100182.78;5114749;28;20032;-61
2021/12/09 02:20:28;;;;;;;20.25;7.07;;;;;;;7.82;59.27;100188.94;5096513;28;20047;-62
2021/12/09 02:22:56;;;;;;;22.10;7.13;;;;;;;8.13;58.38;100185.63;5113755;28;20032;-62
2021/12/09 02:25:21;;;;;;;14.10;6.68;;;;;;;7.60;59.42;100186.06;5080215;28;20053;-62
2021/12/09 02:27:47;;;;;;;16.08;6.45;;;;;;;8.33;56.82;100180.88;5113534;28;20028;-64
2021/12/09 02:30:13;;;;;;;21.98;6.93;;;;;;;7.96;58.47;100190.88;5096145;28;20036;-64
2021/12/09 02:32:38;;;;;;;21.77;7.35;;;;;;;7.65;58.91;100183.22;5114517;28;20058;-64
2021/12/09 02:35:04;;;;;;;21.33;7.72;;;;;;;6.94;61.72;100180.56;5079568;28;20028;-61
2021/12/09 02:37:30;;;;;;;16.88;7.68;;;;;;;7.70;59.18;100188.63;5113017;28;20216;-64
2021/12/09 02:39:56;;;;;;;18.85;7.40;;;;;;;7.25;60.67;100178.19;5113486;28;20024;-61
2021/12/09 02:42:24;;;;;;;18.08;7.25;;;;;;;7.04;61.27;100185.03;5113517;28;20028;-62
2021/12/09 02:44:50;;;;;;;17.45;7.10;;;;;;;7.61;59.71;100185.75;5096294;28;20020;-63
2021/12/09 02:47:16;;;;;;;23.75;7.63;;;;;;;7.56;59.55;100191.31;5112876;28;20039;-62
2021/12/09 02:49:41;;;;;;;19.65;7.88;;;;;;;7.62;59.72;100183.84;5095981;28;20137;-60
2021/12/09 02:52:07;;;;;;;18.50;6.82;;;;;;;7.10;60.95;100196.69;5112940;28;20036;-62
2021/12/09 02:54:33;;;;;;;18.60;7.38;;;;;;;7.27;60.56;100183.34;5112497;28;20028;-65
2021/12/09 02:57:01;;;;;;;20.52;7.47;;;;;;;7.52;60.08;100193.00;5113753;28;20807;-67
2021/12/09 02:59:27;;;;;;;18.70;7.22;;;;;;;7.22;60.83;100186.13;5112711;28;20034;-63
2021/12/09 03:01:59;;;;;;;17.92;7.20;;;;;;;7.15;61.47;100180.25;5114264;28;20028;-63
2021/12/09 03:04:37;;;;;;;16.85;7.57;;;;;;;8.14;57.78;100179.09;5113296;28;20024;-63
2021/12/09 03:07:04;;;;;;;15.60;6.68;;;;;;;7.47;59.72;100184.09;5113532;28;20055;-63
2021/12/09 03:09:30;;;;;;;20.88;7.35;;;;;;;7.47;59.99;100192.28;5113281;28;20024;-63
2021/12/09 03:11:58;;;;;;;15.35;6.72;;;;;;;7.32;59.86;100187.88;5113491;28;20039;-64
2021/12/09 03:14:24;;;;;;;12.68;6.55;;;;;;;7.26;60.60;100181.72;5105996;28;20079;-63
2021/12/09 03:16:51;;;;;;;17.45;6.88;;;;;;;7.49;59.73;100188.13;5104972;28;20020;-64
2021/12/09 03:19:16;;;;;;;17.83;6.93;;;;;;;7.56;59.39;100196.75;5110213;28;20032;-63
2021/12/09 03:21:45;;;;;;;18.85;7.32;;;;;;;7.49;59.99;100192.78;5113200;28;20038;-62
2021/12/09 03:24:17;;;;;;;18.83;7.28;;;;;;;7.55;60.39;100191.59;5105769;28;20036;-64
2021/12/09 03:26:46;;;;;;;16.80;7.43;;;;;;;6.97;61.83;100187.31;5107894;28;20035;-61
2021/12/09 03:29:13;;;;;;;19.67;8.10;;;;;;;7.37;59.82;100185.88;5102793;28;20075;-63
2021/12/09 03:31:42;;;;;;;19.48;7.25;;;;;;;7.25;61.07;100185.53;5106170;28;20034;-64
2021/12/09 03:34:08;;;;;;;21.38;7.75;;;;;;;6.94;60.97;100196.91;5099299;28;20027;-62
2021/12/09 03:36:34;;;;;;;16.33;6.55;;;;;;;7.59;58.93;100189.91;5112110;28;20028;-62
2021/12/09 03:39:05;;;;;;;23.58;6.82;;;;;;;7.21;60.01;100196.22;5096884;28;20237;-62
2021/12/09 03:41:30;;;;;;;17.52;7.50;;;;;;;7.29;59.70;100191.22;5092437;28;20393;-62
2021/12/09 03:43:56;;;;;;;20.15;7.35;;;;;;;7.44;58.69;100199.13;5092464;28;20032;-62
2021/12/09 03:46:22;;;;;;;21.88;7.10;;;;;;;6.81;61.12;100198.44;5091269;28;20029;-61
2021/12/09 03:48:47;;;;;;;16.70;6.88;;;;;;;7.11;60.32;100201.84;5074683;28;20036;-60
2021/12/09 03:51:13;;;;;;;22.35;7.72;;;;;;;7.26;60.11;100200.78;5091513;28;20088;-62
2021/12/09 03:53:38;;;;;;;18.60;7.20;;;;;;;7.03;59.98;100197.88;5091075;28;20033;-61
2021/12/09 03:56:04;;;;;;;23.23;7.97;;;;;;;6.83;61.28;100207.13;5074736;28;20029;-62
2021/12/09 03:58:29;;;;;;;20.55;7.28;;;;;;;6.76;61.07;100208.59;5091037;28;20070;-62
2021/12/09 04:00:55;;;;;;;22.13;7.07;;;;;;;6.95;60.58;100201.25;5074552;28;20029;-62
2021/12/09 04:03:20;;;;;;;22.48;6.70;;;;;;;7.17;60.29;100210.75;5091917;28;20031;-63
2021/12/09 04:05:47;;;;;;;21.50;7.28;;;;;;;6.82;61.40;100208.22;5091599;28;20028;-62
2021/12/09 04:08:14;;;;;;;20.98;7.50;;;;;;;7.01;60.58;100208.22;5092094;28;20028;-62
2021/12/09 04:10:40;;;;;;;24.90;7.90;;;;;;;7.30;59.48;100212.75;5090729;28;20025;-61
2021/12/09 04:13:05;;;;;;;25.15;7.30;;;;;;;7.17;60.39;100213.47;5090989;28;20032;-61
2021/12/09 04:15:31;;;;;;;21.20;6.38;;;;;;;7.47;59.52;100208.66;5089988;28;20109;-63
2021/12/09 04:17:57;;;;;;;22.63;6.80;;;;;;;7.21;58.89;100211.78;5090632;28;20048;-65
2021/12/09 04:20:22;;;;;;;20.50;6.80;;;;;;;7.42;58.71;100213.06;5091828;28;20093;-60
2021/12/09 04:22:49;;;;;;;22.10;6.60;;;;;;;6.91;60.76;100208.38;5073651;28;20047;-63
2021/12/09 04:25:25;;;;;;;19.20;6.10;;;;;;;6.87;61.84;100212.78;5091296;28;20029;-62
2021/12/09 04:27:53;;;;;;;20.63;6.65;;;;;;;6.95;61.15;100209.44;5090317;28;20033;-63
2021/12/09 04:30:19;;;;;;;19.15;6.40;;;;;;;6.54;61.62;100209.97;5090963;28;20048;-63
2021/12/09 04:32:45;;;;;;;17.60;6.75;;;;;;;6.59;61.90;100209.91;5090323;28;20054;-63
2021/12/09 04:35:11;;;;;;;23.92;6.57;;;;;;;6.71;62.40;100207.56;5091546;28;20103;-62
2021/12/09 04:37:38;;;;;;;22.55;6.53;;;;;;;6.79;62.15;100205.28;5073529;28;20062;-61
2021/12/09 04:40:06;;;;;;;19.80;6.72;;;;;;;6.48;63.09;100205.69;5091445;28;20036;-63
2021/12/09 04:42:32;;;;;;;23.38;7.38;;;;;;;6.79;61.59;100205.28;5089809;28;20039;-61
2021/12/09 04:44:57;;;;;;;19.90;6.07;;;;;;;6.61;63.16;100204.16;5073876;28;20033;-62
2021/12/09 04:47:22;;;;;;;22.83;6.72;;;;;;;6.77;61.64;100196.59;5091055;28;20047;-62
2021/12/09 04:49:48;;;;;;;22.35;6.22;;;;;;;6.78;61.32;100207.22;5091018;28;20039;-61
2021/12/09 04:52:13;;;;;;;24.58;5.88;;;;;;;6.90;61.25;100221.22;5091423;28;20059;-62
2021/12/09 04:54:42;;;;;;;20.42;5.85;;;;;;;6.80;61.58;100223.25;5073277;28;20036;-61
2021/12/09 04:57:12;;;;;;;20.38;6.45;;;;;;;7.05;61.13;100225.63;5091353;28;20024;-63
2021/12/09 04:59:38;;;;;;;20.85;5.70;;;;;;;6.88;61.39;100233.50;5092699;28;20031;-62
2021/12/09 05:02:07;;;;;;;21.55;5.93;;;;;;;6.64;61.96;100231.63;5100076;28;20028;-64
2021/12/09 05:04:32;;;;;;;25.17;6.22;;;;;;;6.73;61.73;100239.97;5099311;28;20024;-62
2021/12/09 05:06:58;;;;;;;22.30;6.97;;;;;;;7.07;61.22;100238.97;5111042;28;20081;-63
2021/12/09 05:09:24;;;;;;;20.17;5.70;;;;;;;7.37;59.85;100242.34;5110683;28;20066;-63
2021/12/09 05:11:50;;;;;;;26.05;6.18;;;;;;;7.24;59.95;100241.19;5093390;28;20032;-62
2021/12/09 05:14:18;;;;;;;21.27;6.30;;;;;;;7.06;60.41;100243.63;5111066;28;20101;-62
2021/12/09 05:16:44;;;;;;;20.98;6.30;;;;;;;7.02;60.83;100242.56;5109582;28;20054;-63
2021/12/09 05:19:10;;;;;;;28.48;6.30;;;;;;;7.05;60.84;100247.44;5105269;28;20042;-62
2021/12/09 05:21:37;;;;;;;19.83;5.38;;;;;;;6.84;61.35;100237.91;5095060;28;20076;-62
2021/12/09 05:24:10;;;;;;;21.30;6.18;;;;;;;6.82;61.31;100238.19;5101320;28;20043;-63
2021/12/09 05:26:43;;;;;;;24.77;6.07;;;;;;;6.86;61.41;100243.88;5099673;28;20028;-63
2021/12/09 05:29:09;;;;;;;22.65;6.00;;;;;;;6.84;61.99;100230.56;5093768;28;20063;-62
2021/12/09 05:34:19;;;;;;;22.35;5.80;;;;;;;7.43;59.20;100233.78;5093480;28;20062;-61
2021/12/09 05:36:44;;;;;;;22.80;6.15;;;;;;;7.23;59.91;100245.81;5096680;28;20041;-63
2021/12/09 05:39:12;;;;;;;20.17;6.30;;;;;;;7.43;58.70;100239.25;5100270;28;20085;-61
2021/12/09 05:41:39;;;;;;;21.40;5.63;;;;;;;7.21;59.96;100237.13;5097545;28;20024;-62
2021/12/09 05:44:05;;;;;;;22.13;5.55;;;;;;;7.54;58.97;100234.44;5105194;28;20024;-62
2021/12/09 05:46:34;;;;;;;22.75;5.22;;;;;;;7.50;58.90;100244.31;5108020;28;20059;-64
2021/12/09 05:48:59;;;;;;;25.02;5.68;;;;;;;7.33;60.13;100246.75;5105372;28;20028;-64
2021/12/09 05:51:25;;;;;;;21.52;5.30;;;;;;;7.10;60.60;100248.47;5099526;28;20028;-64
2021/12/09 05:53:51;;;;;;;17.00;5.25;;;;;;;7.50;58.86;100254.44;5103629;28;20055;-63
2021/12/09 05:56:18;;;;;;;22.60;5.60;;;;;;;7.01;60.66;100251.84;5093635;28;20055;-62
2021/12/09 05:58:44;;;;;;;24.08;5.55;;;;;;;7.51;59.08;100256.03;5082782;28;20029;-63
2021/12/09 06:01:09;;;;;;;20.58;5.35;;;;;;;7.62;58.65;100255.59;5093007;28;20029;-63
2021/12/09 06:03:34;;;;;;;20.63;6.10;;;;;;;7.16;59.67;100258.19;5094284;28;20031;-62
2021/12/09 06:06:01;;;;;;;23.38;5.32;;;;;;;7.03;60.00;100263.28;5093142;28;20046;-62
2021/12/09 06:08:26;;;;;;;21.00;5.63;;;;;;;7.51;58.43;100267.78;5093125;28;20032;-63
2021/12/09 06:10:52;;;;;;;24.85;5.38;;;;;;;7.63;58.19;100259.13;5093854;28;20044;-62
2021/12/09 06:13:18;;;;;;;24.33;5.28;;;;;;;6.89;61.08;100271.34;5094242;28;20033;-62
2021/12/09 06:15:44;;;;;;;17.50;5.20;;;;;;;7.02;59.53;100264.38;5092660;28;20064;-61
2021/12/09 06:18:09;;;;;;;23.42;4.90;;;;;;;7.26;59.85;100266.22;5093047;28;20469;-64
2021/12/09 06:20:35;;;;;;;17.33;5.00;;;;;;;7.71;58.88;100263.88;5094011;28;20155;-62
2021/12/09 06:23:00;;;;;;;24.67;5.47;;;;;;;7.48;59.30;100262.06;5093665;28;20048;-62
2021/12/09 06:25:26;;;;;;;22.33;5.88;;;;;;;7.71;59.07;100261.16;5094085;28;20025;-61
2021/12/09 06:27:54;;;;;;;20.48;5.25;;;;;;;7.45;60.02;100261.56;5093461;28;20020;-63
2021/12/09 06:30:21;;;;;;;19.85;4.95;;;;;;;7.12;60.82;100259.91;5093446;28;20048;-60
2021/12/09 06:32:46;;;;;;;17.60;5.57;;;;;;;6.78;61.60;100264.41;5093901;28;20040;-63
2021/12/09 06:35:12;;;;;;;20.45;5.43;;;;;;;7.16;60.97;100263.63;5092426;28;20033;-63
2021/12/09 06:37:40;;;;;;;24.40;6.50;;;;;;;6.94;61.82;100266.97;5093888;28;20055;-62
2021/12/09 06:40:07;;;;;;;22.65;5.65;;;;;;;7.02;61.42;100264.38;5076234;28;20028;-65
2021/12/09 06:42:33;;;;;;;;;;;;;;;7.29;61.22;100268.38;5094084;28;20039;-60
2021/12/09 06:44:58;;;;;;;21.90;5.65;;;;;;;7.16;61.34;100259.00;5092194;28;19987;-62
2021/12/09 06:47:23;;;;;;;23.23;6.30;;;;;;;7.40;60.34;100264.38;5093135;28;20024;-63
2021/12/09 06:49:50;;;;;;;24.00;6.18;;;;;;;7.15;60.10;100267.47;5075562;28;20100;-63
2021/12/09 06:52:16;;;;;;;22.83;5.97;;;;;;;7.12;60.04;100268.88;5093457;28;20051;-61
2021/12/09 06:54:42;;;;;;;31.27;6.63;;;;;;;6.85;61.54;100266.78;5092257;28;20032;-62
2021/12/09 06:57:07;;;;;;;23.63;6.43;;;;;;;6.77;61.89;100264.72;5091930;28;20058;-63
2021/12/09 06:59:32;;;;;;;22.38;6.47;;;;;;;7.04;61.30;100259.44;5093345;28;20064;-62
2021/12/09 07:01:58;;;;;;;20.55;6.43;;;;;;;7.07;61.84;100267.03;5092714;28;20039;-63
2021/12/09 07:04:23;;;;;;;25.35;8.38;;;;;;;6.71;62.83;100275.69;5058529;28;20058;-61
2021/12/09 07:06:48;;;;;;;24.77;7.47;;;;;;;7.33;61.26;100274.84;5092278;28;20032;-61
2021/12/09 07:09:14;;;;;;;25.23;6.80;;;;;;;6.97;62.61;100271.78;5091932;28;20029;-61
2021/12/09 07:11:44;;;;;;;24.63;6.55;;;;;;;7.15;61.67;100272.94;5092919;28;20031;-63
2021/12/09 07:14:09;;;;;;;25.05;7.35;;;;;;;7.61;59.99;100274.97;5092436;28;20021;-62
2021/12/09 07:16:35;;;;;;;25.02;7.07;;;;;;;7.25;61.41;100270.06;5091623;28;20084;-62
2021/12/09 07:19:00;;;;;;;23.33;6.57;;;;;;;7.49;60.39;100282.81;5091821;28;20032;-63
2021/12/09 07:21:25;;;;;;;28.83;6.88;;;;;;;7.52;60.22;100282.22;5058033;28;20021;-63
2021/12/09 07:23:51;;;;;;;24.70;7.28;;;;;;;7.31;60.53;100282.50;5092667;28;20040;-61
2021/12/09 07:26:16;;;;;;;19.50;6.38;;;;;;;7.77;59.79;100284.53;5092498;28;20675;-64
2021/12/09 07:28:42;;;;;;;31.13;7.60;;;;;;;7.67;59.94;100284.72;5091738;28;20453;-62
2021/12/09 07:31:07;;;;;;;25.40;7.18;;;;;;;6.96;62.22;100298.25;5090884;28;20029;-61
2021/12/09 07:33:33;;;;;;;22.10;6.28;;;;;;;7.37;61.40;100288.72;5091635;28;20028;-62
2021/12/09 07:35:58;;;;;;;23.77;6.20;;;;;;;7.65;59.98;100297.00;5091318;28;20040;-62
2021/12/09 07:38:23;;;;;;;24.33;7.25;;;;;;;7.37;61.27;100286.78;5091664;28;20029;-63
2021/12/09 07:40:49;;;;;;;23.70;6.60;;;;;;;7.41;61.87;100292.47;5092478;28;20035;-62
2021/12/09 07:43:14;;;;;;;25.48;5.95;;;;;;;7.41;61.97;100287.84;5091021;28;20032;-63
2021/12/09 07:45:40;;;;;;;20.98;6.47;;;;;;;7.25;62.24;100289.13;5092023;28;20028;-62
2021/12/09 07:48:05;;;;;;;22.55;7.13;;;;;;;7.33;61.83;100291.19;5090829;28;20032;-63
2021/12/09 07:50:31;;;;;;;24.02;7.20;;;;;;;7.41;62.26;100290.56;5091292;28;20031;-62
2021/12/09 07:52:57;;;;;;;22.70;7.40;;;;;;;6.70;64.48;100295.84;5091217;28;20099;-61
2021/12/09 07:55:24;;;;;;;20.23;6.88;;;;;;;7.53;62.32;100302.94;5091681;28;20028;-64
2021/12/09 07:57:51;;;;;;;20.02;6.90;;;;;;;7.15;63.50;100316.56;5092310;28;20028;-62
2021/12/09 08:00:29;;;;;;;27.17;7.68;;;;;;;7.60;62.54;100312.38;5089547;28;20033;-62
2021/12/09 08:02:56;;;;;;;23.75;7.57;;;;;;;7.65;62.86;100308.72;5091297;28;20039;-64
2021/12/09 08:05:22;;;;;;;29.02;8.07;;;;;;;7.22;63.77;100306.09;5090555;28;20091;-62
2021/12/09 08:07:48;;;;;;;22.90;8.87;;;;;;;7.39;64.00;100311.03;5091889;28;20028;-62
2021/12/09 08:10:15;;;;;;;26.13;8.77;;;;;;;7.26;64.53;100309.84;5091618;28;20036;-63
2021/12/09 08:12:41;;;;;;;36.15;8.80;;;;;;;7.41;64.27;100309.66;5091769;28;20092;-63
2021/12/09 08:15:08;;;;;;;22.00;7.50;;;;;;;7.70;62.96;100322.31;5089970;28;20058;-64
2021/12/09 08:20:00;;;;;;;25.63;7.53;;;;;;;7.73;63.22;100329.06;5091820;28;20415;-62
2021/12/09 08:22:26;;;;;;;25.50;8.25;;;;;;;7.87;62.50;100326.41;5090332;28;20036;-62
2021/12/09 08:24:55;;;;;;;27.90;8.85;;;;;;;7.86;62.71;100331.06;5090816;28;20028;-64
2021/12/09 08:27:21;;;;;;;31.45;9.15;;;;;;;7.92;62.25;100326.31;5090430;28;20032;-63
2021/12/09 08:29:46;;;;;;;29.70;9.25;;;;;;;8.16;61.91;100331.66;5091222;28;20046;-61
2021/12/09 08:32:12;;;;;;;32.78;9.68;;;;;;;7.85;62.70;100326.72;5073562;28;20024;-62
2021/12/09 08:34:37;;;;;;;29.27;10.30;;;;;;;8.03;62.53;100324.25;5091396;28;20033;-63
2021/12/09 08:37:06;;;;;;;30.10;9.77;;;;;;;8.24;62.12;100327.44;5091123;28;20032;-63
2021/12/09 08:39:34;;;;;;;29.50;10.27;;;;;;;8.40;61.45;100323.34;5099047;28;20089;-64
2021/12/09 08:42:07;;;;;;;25.90;9.98;;;;;;;8.27;61.98;100327.66;5071225;28;20043;-64
2021/12/09 08:44:32;;;;;;;26.25;8.35;;;;;;;8.23;61.97;100328.56;5078869;28;20020;-62
2021/12/09 08:46:59;;;;;;;26.83;9.15;;;;;;;8.07;62.74;100330.75;5079358;28;20020;-63
2021/12/09 08:49:24;;;;;;;30.40;8.35;;;;;;;7.99;62.70;100321.31;5073401;28;20092;-64
2021/12/09 08:51:50;;;;;;;24.73;8.07;;;;;;;7.68;64.20;100321.78;5091288;28;20047;-62
2021/12/09 08:54:15;;;;;;;22.05;9.25;;;;;;;8.27;62.41;100330.41;5090116;28;20028;-62
2021/12/09 08:56:42;;;;;;;27.50;8.25;;;;;;;8.50;61.40;100338.75;5090389;28;20032;-64
2021/12/09 08:59:08;;;;;;;26.83;8.50;;;;;;;8.83;60.88;100336.75;5090930;28;20028;-64
2021/12/09 09:01:34;;;;;;;25.90;8.25;;;;;;;8.89;60.40;100330.06;5090684;28;20273;-63
2021/12/09 09:04:01;;;;;;;27.13;7.97;;;;;;;8.63;60.90;100339.88;5078629;28;20063;-61
2021/12/09 09:06:27;;;;;;;24.33;7.80;;;;;;;8.23;61.96;100334.03;5076574;28;20056;-62
2021/12/09 09:08:57;;;;;;;19.23;8.18;;;;;;;8.76;61.31;100339.06;5078976;28;20032;-64
2021/12/09 09:11:23;;;;;;;24.33;8.40;;;;;;;8.97;60.76;100336.75;5073104;28;20035;-63
2021/12/09 09:13:48;;;;;;;22.30;7.63;;;;;;;8.95;60.77;100338.97;5074810;28;20052;-64
2021/12/09 09:16:13;;;;;;;30.25;8.80;;;;;;;8.57;61.86;100344.63;5076661;28;20041;-63
2021/12/09 09:18:39;;;;;;;25.52;9.23;;;;;;;8.32;62.15;100343.94;5060343;28;20029;-62
2021/12/09 09:21:05;;;;;;;31.33;9.13;;;;;;;8.41;62.61;100346.00;5070096;28;20044;-63
2021/12/09 09:23:30;;;;;;;21.02;8.13;;;;;;;8.83;61.45;100339.50;5076609;28;20457;-63
2021/12/09 09:25:56;;;;;;;27.83;8.82;;;;;;;8.66;61.40;100352.94;5091932;28;20017;-63
2021/12/09 09:28:21;;;;;;;26.52;8.20;;;;;;;9.04;60.54;100347.28;5072748;28;20551;-61
2021/12/09 09:30:53;;;;;;;29.88;9.43;;;;;;;8.77;61.20;100354.38;5080314;28;20366;-63
2021/12/09 09:33:21;;;;;;;25.27;9.25;;;;;;;8.92;61.47;100347.78;5080321;28;20021;-60
2021/12/09 09:35:46;;;;;;;25.70;8.75;;;;;;;8.76;61.89;100344.53;5078661;28;20020;-63
2021/12/09 09:38:12;;;;;;;26.83;10.50;;;;;;;8.64;62.21;100344.25;5076852;28;20025;-62
2021/12/09 09:41:04;;;;;;;26.38;9.73;;;;;;;8.96;61.57;100345.25;5083493;28;20037;-64
2021/12/09 09:46:17;;;;;;;30.70;11.20;;;;;;;8.67;62.40;100343.59;5076490;28;20044;-63
2021/12/09 09:48:44;;;;;;;29.80;10.98;;;;;;;8.70;62.46;100334.81;5075990;28;20033;-62
2021/12/09 09:51:09;;;;;;;31.95;11.60;;;;;;;8.71;62.37;100341.91;5083660;28;20036;-65
2021/12/09 09:53:37;;;;;;;28.50;11.40;;;;;;;8.92;61.45;100344.25;5082255;28;20055;-64
2021/12/09 09:56:08;;;;;;;31.77;11.32;;;;;;;9.23;60.62;100349.91;5078293;28;20028;-63
2021/12/09 09:58:34;;;;;;;30.92;11.80;;;;;;;8.82;61.85;100357.00;5079126;28;20047;-62
2021/12/09 10:01:00;;;;;;;28.23;10.75;;;;;;;9.29;60.72;100356.06;5081815;28;20036;-62
2021/12/09 10:03:29;;;;;;;32.95;11.95;;;;;;;8.49;62.88;100357.03;5082307;28;20025;-64
2021/12/09 10:05:57;;;;;;;30.20;11.90;;;;;;;8.76;62.41;100351.94;5080766;28;20052;-63
2021/12/09 10:08:23;;;;;;;;;;;;;;;8.73;62.66;100361.53;5082398;28;20043;-64
2021/12/09 10:10:48;;;;;;;29.10;11.63;;;;;;;8.95;62.33;100349.09;5074983;28;19912;-64
2021/12/09 10:13:15;;;;;;;34.60;13.32;;;;;;;8.87;63.05;100350.63;5075103;28;20028;-62
2021/12/09 10:15:48;;;;;;;31.05;12.68;;;;;;;9.34;61.55;100353.22;5083120;28;20041;-63
2021/12/09 10:18:30;;;;;;;33.50;13.23;;;;;;;9.35;61.72;100355.63;5078767;28;20029;-63
2021/12/09 10:20:56;;;;;;;26.75;11.82;;;;;;;9.46;60.77;100353.47;5078478;28;20040;-62
2021/12/09 10:23:33;;;;;;;30.92;12.50;;;;;;;9.79;60.68;100350.56;5081436;28;20025;-62
2021/12/09 10:26:23;;;;;;;27.88;13.23;;;;;;;9.52;61.31;100351.47;5079582;28;20009;-64
2021/12/09 10:29:03;;;;;;;29.92;13.25;;;;;;;9.05;62.32;100346.16;5081485;28;20032;-61
2021/12/09 10:31:53;;;;;;;35.22;13.50;;;;;;;9.51;61.84;100350.63;5082181;28;20092;-62
2021/12/09 10:34:40;;;;;;;32.63;13.95;;;;;;;9.35;61.91;100349.34;5084645;28;20043;-62
2021/12/09 10:37:28;;;;;;;35.97;15.57;;;;;;;9.42;62.14;100347.03;5099788;28;20027;-64
2021/12/09 10:39:59;;;;;;;30.42;14.20;;;;;;;9.91;60.37;100339.88;5084524;28;20021;-63
2021/12/09 10:42:27;;;;;;;38.65;14.00;;;;;;;9.26;61.57;100344.63;5079125;28;20388;-64
2021/12/09 10:44:52;;;;;;;36.83;15.63;;;;;;;9.37;61.72;100337.00;5081528;28;20013;-65
2021/12/09 10:50:35;;;;;;;34.70;14.55;;;;;;;8.85;63.81;100320.06;5086838;28;20116;-62
2021/12/09 10:55:47;;;;;;;37.85;15.23;;;;;;;9.44;61.89;100328.38;5083204;28;20025;-64
2021/12/09 10:58:16;;;;;;;37.60;16.75;;;;;;;9.33;62.72;100329.72;5090719;28;20016;-62
2021/12/09 11:00:51;;;;;;;34.92;16.75;;;;;;;9.73;61.66;100318.94;5081002;28;20068;-65
2021/12/09 11:03:23;;;;;;;37.10;16.13;;;;;;;9.54;62.33;100327.31;5085340;28;20021;-63
2021/12/09 11:05:52;;;;;;;39.55;16.65;;;;;;;9.61;61.82;100331.25;5079960;28;20021;-61
2021/12/09 11:08:24;;;;;;;37.30;16.00;;;;;;;9.31;62.83;100318.28;5079565;28;20035;-62
2021/12/09 11:10:57;;;;;;;35.17;16.83;;;;;;;9.69;61.74;100318.75;5088782;28;20024;-65
2021/12/09 11:13:23;;;;;;;33.85;16.52;;;;;;;9.70;61.73;100320.38;5082309;28;20112;-64
2021/12/09 11:15:57;;;;;;;41.42;17.80;;;;;;;9.56;62.45;100325.91;5084132;28;20056;-63
2021/12/09 11:18:44;;;;;;;40.80;17.58;;;;;;;9.85;61.32;100321.94;5085022;28;20036;-63
2021/12/09 11:21:33;;;;;;;41.70;16.05;;;;;;;9.67;62.23;100321.00;5064956;28;20033;-62
2021/12/09 11:24:02;;;;;;;41.63;16.63;;;;;;;9.68;62.00;100328.09;5079034;28;20101;-62
2021/12/09 11:26:45;;;;;;;36.72;15.90;;;;;;;9.98;61.08;100315.59;5079987;28;20043;-64
2021/12/09 11:29:17;;;;;;;42.50;16.55;;;;;;;9.68;61.89;100321.81;5083758;28;20710;-65
2021/12/09 11:32:05;;;;;;;41.42;17.02;;;;;;;9.28;63.24;100319.69;5085013;28;20028;-63
2021/12/09 11:34:32;;;;;;;;;;;;;;;9.65;62.59;100311.47;5080757;28;20121;-61
2021/12/09 11:37:04;;;;;;;40.17;16.95;;;;;;;9.98;61.14;100325.75;5086374;28;19919;-62
2021/12/09 11:39:33;;;;;;;40.83;17.50;;;;;;;9.82;61.40;100322.56;5078929;28;20021;-63